createdAt,value
2018-11-10T00:01:10.786Z,90.50
2018-11-10T00:03:39.397Z,90.50
2018-11-10T00:06:07.976Z,90.50
2018-11-10T00:08:36.503Z,90.50
2018-11-10T00:11:05.092Z,90.40
2018-11-10T00:13:33.652Z,90.40
2018-11-10T00:16:02.260Z,90.40
2018-11-10T00:18:30.835Z,90.40
2018-11-10T00:20:59.395Z,90.40
2018-11-10T00:23:27.967Z,90.40
2018-11-10T00:25:56.540Z,90.80
2018-11-10T00:28:25.072Z,90.60
2018-11-10T00:30:53.624Z,90.60
2018-11-10T00:33:22.215Z,90.60
2018-11-10T00:35:50.809Z,90.60
2018-11-10T00:38:19.395Z,90.50
2018-11-10T00:40:47.962Z,90.50
2018-11-10T00:43:16.551Z,90.40
2018-11-10T00:45:45.106Z,90.50
2018-11-10T00:48:13.676Z,90.40
2018-11-10T00:50:42.618Z,90.30
2018-11-10T00:53:11.209Z,90.30
2018-11-10T00:55:39.761Z,90.30
2018-11-10T00:58:08.320Z,90.30
2018-11-10T01:00:36.864Z,90.40
2018-11-10T01:03:05.523Z,90.40
2018-11-10T01:05:34.103Z,90.40
2018-11-10T01:08:02.664Z,90.30
2018-11-10T01:10:31.241Z,90.20
2018-11-10T01:12:59.791Z,90.20
2018-11-10T01:15:28.353Z,90.10
2018-11-10T01:17:56.952Z,90.10
2018-11-10T01:20:25.527Z,90.00
2018-11-10T01:22:54.078Z,89.90
2018-11-10T01:25:22.616Z,89.90
2018-11-10T01:27:51.269Z,90.00
2018-11-10T01:30:19.815Z,90.10
2018-11-10T01:32:48.352Z,90.10
2018-11-10T01:35:16.916Z,90.20
2018-11-10T01:37:45.488Z,90.20
2018-11-10T01:40:14.599Z,90.30
2018-11-10T01:42:43.530Z,90.30
2018-11-10T01:45:14.330Z,90.30
2018-11-10T01:47:43.492Z,90.20
2018-11-10T01:50:12.157Z,90.20
2018-11-10T01:52:41.276Z,90.20
2018-11-10T01:55:10.537Z,90.20
2018-11-10T01:57:39.634Z,90.10
2018-11-10T02:00:13.008Z,90.10
2018-11-10T02:02:41.913Z,90.20
2018-11-10T02:05:10.492Z,90.30
2018-11-10T02:07:39.018Z,90.30
2018-11-10T02:10:08.880Z,90.20
2018-11-10T02:12:37.461Z,90.20
2018-11-10T02:15:07.692Z,90.20
2018-11-10T02:17:36.233Z,90.20
2018-11-10T02:20:06.272Z,90.20
2018-11-10T02:22:34.857Z,90.20
2018-11-10T02:25:03.595Z,90.30
2018-11-10T02:27:32.183Z,90.30
2018-11-10T02:30:00.797Z,90.30
2018-11-10T02:32:29.328Z,90.30
2018-11-10T02:34:57.888Z,90.20
2018-11-10T02:37:26.446Z,90.40
2018-11-10T02:39:54.987Z,90.00
2018-11-10T02:42:23.530Z,90.00
2018-11-10T02:44:52.079Z,90.00
2018-11-10T02:47:20.640Z,90.00
2018-11-10T02:49:49.220Z,90.00
2018-11-10T02:52:17.768Z,90.00
2018-11-10T02:54:46.348Z,90.00
2018-11-10T02:57:14.913Z,90.10
2018-11-10T02:59:43.480Z,90.10
2018-11-10T03:02:12.041Z,90.30
2018-11-10T03:04:40.580Z,90.10
2018-11-10T03:07:09.124Z,90.00
2018-11-10T03:09:37.664Z,90.00
2018-11-10T03:12:06.397Z,90.00
2018-11-10T03:14:34.972Z,89.90
2018-11-10T03:17:03.512Z,89.80
2018-11-10T03:19:32.063Z,89.60
2018-11-10T03:22:00.620Z,89.80
2018-11-10T03:24:29.164Z,89.80
2018-11-10T03:26:57.748Z,89.80
2018-11-10T03:29:26.277Z,90.20
2018-11-10T03:31:54.800Z,90.00
2018-11-10T03:34:23.366Z,90.00
2018-11-10T03:36:51.919Z,89.80
2018-11-10T03:39:20.471Z,89.70
2018-11-10T03:41:49.005Z,89.80
2018-11-10T03:44:17.577Z,90.00
2018-11-10T03:46:46.123Z,90.10
2018-11-10T03:49:14.680Z,90.20
2018-11-10T03:51:43.244Z,90.20
2018-11-10T03:54:11.796Z,90.30
2018-11-10T03:56:40.335Z,90.30
2018-11-10T03:59:08.867Z,90.40
2018-11-10T04:01:37.399Z,90.40
2018-11-10T04:04:05.978Z,90.30
2018-11-10T04:06:34.511Z,90.30
2018-11-10T04:09:03.133Z,90.30
2018-11-10T04:11:31.657Z,90.20
2018-11-10T04:14:00.209Z,90.20
2018-11-10T04:16:28.767Z,90.20
2018-11-10T04:18:57.332Z,90.10
2018-11-10T04:21:25.882Z,90.20
2018-11-10T04:23:54.437Z,90.20
2018-11-10T04:26:22.977Z,90.20
2018-11-10T04:28:51.509Z,90.20
2018-11-10T04:31:20.099Z,90.20
2018-11-10T04:33:48.660Z,90.50
2018-11-10T04:36:17.234Z,90.30
2018-11-10T04:38:45.803Z,90.30
2018-11-10T04:41:14.389Z,90.60
2018-11-10T04:43:42.936Z,90.20
2018-11-10T04:46:11.488Z,90.20
2018-11-10T04:48:40.159Z,90.10
2018-11-10T04:51:08.711Z,90.10
2018-11-10T04:53:37.272Z,90.10
2018-11-10T04:56:05.883Z,90.20
2018-11-10T04:58:34.432Z,90.20
2018-11-10T05:01:02.998Z,90.40
2018-11-10T05:03:31.561Z,90.50
2018-11-10T05:06:00.109Z,90.60
2018-11-10T05:08:28.641Z,90.60
2018-11-10T05:10:57.184Z,90.60
2018-11-10T05:13:25.744Z,90.70
2018-11-10T05:15:54.276Z,90.70
2018-11-10T05:18:22.806Z,90.80
2018-11-10T05:20:51.362Z,90.70
2018-11-10T05:23:19.900Z,90.60
2018-11-10T05:25:48.437Z,90.70
2018-11-10T05:28:16.994Z,90.60
2018-11-10T05:30:45.533Z,90.50
2018-11-10T05:33:14.060Z,90.50
2018-11-10T05:35:42.633Z,90.50
2018-11-10T05:38:11.191Z,90.50
2018-11-10T05:40:39.744Z,90.40
2018-11-10T05:43:08.307Z,90.40
2018-11-10T05:45:36.868Z,90.50
2018-11-10T05:48:05.683Z,90.50
2018-11-10T05:50:34.220Z,90.60
2018-11-10T05:53:02.803Z,90.70
2018-11-10T05:55:31.392Z,90.70
2018-11-10T05:57:59.931Z,90.70
2018-11-10T06:00:28.531Z,90.50
2018-11-10T06:02:57.201Z,90.40
2018-11-10T06:05:25.760Z,90.50
2018-11-10T06:07:54.336Z,90.70
2018-11-10T06:10:23.097Z,90.80
2018-11-10T06:12:51.474Z,90.80
2018-11-10T06:15:20.032Z,90.70
2018-11-10T06:17:48.574Z,90.60
2018-11-10T06:20:17.168Z,90.60
2018-11-10T06:22:45.692Z,90.50
2018-11-10T06:25:14.240Z,90.40
2018-11-10T06:27:42.836Z,90.30
2018-11-10T06:30:12.236Z,90.20
2018-11-10T06:32:40.899Z,90.20
2018-11-10T06:35:09.976Z,90.20
2018-11-10T06:37:38.658Z,90.30
2018-11-10T06:40:08.944Z,90.20
2018-11-10T06:42:37.483Z,90.20
2018-11-10T06:45:06.408Z,90.20
2018-11-10T06:47:35.168Z,90.20
2018-11-10T06:50:04.309Z,90.20
2018-11-10T06:52:32.848Z,90.10
2018-11-10T06:55:01.392Z,90.10
2018-11-10T06:57:29.940Z,90.10
2018-11-10T06:59:58.485Z,90.00
2018-11-10T07:02:27.023Z,90.00
2018-11-10T07:04:55.588Z,89.90
2018-11-10T07:07:24.220Z,90.10
2018-11-10T07:09:52.771Z,90.10
2018-11-10T07:12:21.343Z,90.10
2018-11-10T07:14:49.920Z,90.00
2018-11-10T07:17:18.547Z,89.90
2018-11-10T07:19:47.088Z,89.80
2018-11-10T07:22:15.662Z,89.80
2018-11-10T07:24:44.215Z,89.70
2018-11-10T07:27:12.783Z,90.20
2018-11-10T07:29:41.347Z,89.70
2018-11-10T07:32:09.936Z,89.50
2018-11-10T07:34:38.500Z,89.40
2018-11-10T07:37:07.092Z,89.30
2018-11-10T07:39:35.648Z,89.10
2018-11-10T07:42:04.236Z,88.80
2018-11-10T07:44:32.803Z,88.80
2018-11-10T07:47:01.411Z,88.80
2018-11-10T07:49:30.094Z,88.80
2018-11-10T07:51:58.611Z,88.80
2018-11-10T07:54:27.231Z,88.80
2018-11-10T07:56:55.774Z,88.80
2018-11-10T07:59:24.343Z,88.80
2018-11-10T08:01:52.904Z,88.50
2018-11-10T08:04:21.516Z,88.30
2018-11-10T08:06:50.060Z,88.00
2018-11-10T08:09:18.641Z,87.80
2018-11-10T08:11:47.229Z,87.80
2018-11-10T08:14:15.768Z,87.60
2018-11-10T08:16:44.365Z,87.50
2018-11-10T08:19:12.923Z,87.60
2018-11-10T08:21:41.499Z,87.40
2018-11-10T08:24:10.036Z,87.10
2018-11-10T08:26:38.599Z,87.10
2018-11-10T08:29:07.434Z,86.90
2018-11-10T08:31:35.964Z,86.60
2018-11-10T08:34:04.535Z,86.60
2018-11-10T08:36:33.107Z,86.80
2018-11-10T08:39:01.709Z,86.50
2018-11-10T08:41:30.244Z,86.60
2018-11-10T08:43:58.792Z,86.50
2018-11-10T08:46:27.380Z,86.20
2018-11-10T08:48:55.915Z,86.00
2018-11-10T08:51:24.478Z,86.30
2018-11-10T08:53:53.061Z,86.80
2018-11-10T08:56:21.645Z,86.90
2018-11-10T08:58:50.205Z,86.40
2018-11-10T09:01:18.776Z,85.80
2018-11-10T09:03:47.771Z,85.30
2018-11-10T09:06:16.307Z,84.80
2018-11-10T09:08:44.940Z,84.50
2018-11-10T09:11:13.492Z,84.50
2018-11-10T09:13:42.186Z,84.10
2018-11-10T09:16:10.766Z,83.70
2018-11-10T09:18:39.336Z,83.30
2018-11-10T09:21:07.984Z,83.10
2018-11-10T09:23:36.492Z,82.80
2018-11-10T09:26:05.102Z,82.80
2018-11-10T09:28:33.672Z,82.70
2018-11-10T09:31:02.307Z,82.50
2018-11-10T09:33:30.827Z,82.20
2018-11-10T09:35:59.395Z,81.90
2018-11-10T09:38:27.968Z,81.80
2018-11-10T09:40:56.521Z,81.70
2018-11-10T09:43:25.140Z,81.40
2018-11-10T09:45:53.721Z,81.20
2018-11-10T09:48:22.271Z,80.90
2018-11-10T09:50:50.874Z,80.60
2018-11-10T09:53:19.435Z,80.30
2018-11-10T09:55:47.968Z,80.00
2018-11-10T09:58:16.520Z,79.80
2018-11-10T10:00:45.084Z,79.60
2018-11-10T10:03:13.679Z,80.00
2018-11-10T10:05:42.251Z,80.30
2018-11-10T10:08:10.824Z,80.50
2018-11-10T10:10:39.366Z,80.40
2018-11-10T10:13:07.913Z,80.40
2018-11-10T10:15:36.480Z,80.10
2018-11-10T10:18:05.084Z,79.90
2018-11-10T10:20:33.673Z,79.70
2018-11-10T10:23:02.225Z,79.40
2018-11-10T10:25:30.776Z,79.30
2018-11-10T10:27:59.320Z,79.20
2018-11-10T10:30:27.880Z,78.90
2018-11-10T10:32:56.432Z,78.70
2018-11-10T10:35:25.139Z,78.80
2018-11-10T10:37:53.695Z,78.70
2018-11-10T10:40:22.320Z,79.10
2018-11-10T10:42:50.958Z,78.60
2018-11-10T10:45:23.501Z,78.50
2018-11-10T10:47:52.358Z,78.40
2018-11-10T10:50:22.026Z,78.40
2018-11-10T10:52:50.592Z,78.50
2018-11-10T10:55:19.580Z,78.40
2018-11-10T10:57:49.073Z,78.30
2018-11-10T11:00:22.957Z,78.20
2018-11-10T11:02:56.875Z,78.10
2018-11-10T11:05:31.443Z,77.80
2018-11-10T11:08:00.044Z,77.80
2018-11-10T11:10:28.601Z,77.60
2018-11-10T11:12:57.255Z,77.60
2018-11-10T11:15:25.878Z,77.60
2018-11-10T11:17:54.451Z,77.50
2018-11-10T11:20:23.004Z,77.70
2018-11-10T11:22:51.565Z,77.80
2018-11-10T11:25:20.136Z,78.00
2018-11-10T11:27:48.688Z,78.60
2018-11-10T11:30:17.265Z,79.20
2018-11-10T11:32:45.812Z,79.10
2018-11-10T11:35:14.630Z,79.10
2018-11-10T11:37:43.311Z,79.00
2018-11-10T11:40:13.355Z,78.60
2018-11-10T11:42:42.249Z,78.30
2018-11-10T11:45:11.788Z,77.90
2018-11-10T11:47:41.048Z,77.70
2018-11-10T11:50:11.152Z,77.40
2018-11-10T11:52:40.331Z,77.20
2018-11-10T11:55:09.492Z,77.00
2018-11-10T11:57:38.276Z,77.10
2018-11-10T12:00:12.029Z,76.90
2018-11-10T12:02:41.244Z,76.70
2018-11-10T12:05:10.873Z,76.90
2018-11-10T12:07:39.560Z,77.40
2018-11-10T12:10:09.328Z,78.00
2018-11-10T12:12:37.907Z,78.10
2018-11-10T12:15:06.911Z,77.90
2018-11-10T12:17:35.583Z,77.80
2018-11-10T12:20:04.324Z,77.90
2018-11-10T12:22:32.875Z,78.20
2018-11-10T12:25:01.441Z,78.40
2018-11-10T12:27:30.024Z,78.40
2018-11-10T12:29:58.592Z,78.30
2018-11-10T12:32:27.150Z,78.00
2018-11-10T12:34:55.700Z,77.80
2018-11-10T12:37:24.260Z,77.90
2018-11-10T12:39:52.832Z,77.80
2018-11-10T12:42:21.384Z,77.40
2018-11-10T12:44:49.991Z,77.30
2018-11-10T12:47:18.583Z,77.20
2018-11-10T12:49:47.141Z,76.90
2018-11-10T12:52:15.754Z,76.90
2018-11-10T12:54:44.332Z,76.80
2018-11-10T12:57:12.916Z,77.20
2018-11-10T12:59:41.477Z,77.20
2018-11-10T13:02:10.028Z,76.90
2018-11-10T13:04:39.297Z,76.50
2018-11-10T13:07:08.803Z,76.40
2018-11-10T13:09:38.297Z,76.40
2018-11-10T13:12:07.783Z,76.30
2018-11-10T13:14:37.283Z,76.00
2018-11-10T13:17:06.907Z,75.60
2018-11-10T13:19:36.362Z,75.20
2018-11-10T13:22:05.089Z,75.70
2018-11-10T13:24:33.635Z,75.80
2018-11-10T13:27:02.244Z,75.80
2018-11-10T13:29:30.819Z,75.80
2018-11-10T13:31:59.425Z,75.80
2018-11-10T13:34:28.034Z,76.10
2018-11-10T13:36:56.564Z,76.50
2018-11-10T13:39:25.141Z,77.20
2018-11-10T13:41:53.686Z,77.90
2018-11-10T13:44:22.275Z,78.70
2018-11-10T13:46:50.840Z,78.90
2018-11-10T13:49:19.420Z,78.90
2018-11-10T13:51:48.290Z,79.10
2018-11-10T13:54:16.600Z,79.10
2018-11-10T13:56:45.184Z,79.40
2018-11-10T13:59:13.810Z,79.40
2018-11-10T14:01:42.349Z,79.40
2018-11-10T14:04:10.908Z,79.20
2018-11-10T14:06:39.480Z,79.00
2018-11-10T14:09:09.479Z,78.80
2018-11-10T14:11:38.051Z,78.70
2018-11-10T14:14:06.684Z,78.60
2018-11-10T14:16:36.144Z,78.80
2018-11-10T14:19:04.835Z,78.80
2018-11-10T14:21:33.433Z,79.00
2018-11-10T14:24:02.021Z,79.00
2018-11-10T14:26:30.705Z,79.10
2018-11-10T14:28:59.210Z,79.20
2018-11-10T14:31:27.785Z,79.40
2018-11-10T14:33:56.379Z,79.60
2018-11-10T14:36:24.948Z,79.70
2018-11-10T14:38:53.531Z,79.80
2018-11-10T14:41:22.106Z,79.80
2018-11-10T14:43:50.705Z,79.80
2018-11-10T14:46:19.259Z,79.80
2018-11-10T14:48:47.808Z,80.10
2018-11-10T14:51:16.372Z,80.20
2018-11-10T14:53:44.934Z,80.40
2018-11-10T14:56:13.472Z,80.60
2018-11-10T14:58:42.089Z,80.70
2018-11-10T15:01:10.617Z,80.80
2018-11-10T15:03:39.412Z,80.80
2018-11-10T15:06:07.966Z,80.80
2018-11-10T15:08:36.540Z,81.10
2018-11-10T15:11:05.881Z,81.30
2018-11-10T15:13:34.434Z,81.50
2018-11-10T15:16:02.997Z,81.60
2018-11-10T15:18:31.598Z,81.90
2018-11-10T15:21:00.159Z,82.00
2018-11-10T15:23:28.719Z,82.30
2018-11-10T15:25:57.280Z,82.80
2018-11-10T15:28:25.843Z,83.20
2018-11-10T15:30:54.404Z,83.30
2018-11-10T15:33:22.984Z,83.60
2018-11-10T15:35:51.536Z,83.90
2018-11-10T15:38:20.088Z,84.20
2018-11-10T15:40:48.639Z,84.40
2018-11-10T15:43:17.204Z,84.50
2018-11-10T15:45:45.783Z,84.60
2018-11-10T15:48:14.336Z,84.60
2018-11-10T15:50:42.876Z,84.70
2018-11-10T15:53:11.428Z,84.80
2018-11-10T15:55:39.980Z,84.90
2018-11-10T15:58:08.543Z,85.10
2018-11-10T16:00:37.124Z,85.10
2018-11-10T16:03:05.865Z,85.20
2018-11-10T16:05:34.416Z,85.30
2018-11-10T16:08:02.943Z,85.40
2018-11-10T16:10:31.528Z,85.40
2018-11-10T16:13:00.092Z,85.30
2018-11-10T16:15:28.672Z,85.40
2018-11-10T16:17:57.215Z,85.40
2018-11-10T16:20:25.768Z,85.20
2018-11-10T16:22:54.327Z,85.20
2018-11-10T16:25:22.881Z,85.40
2018-11-10T16:27:51.470Z,85.80
2018-11-10T16:30:20.352Z,86.20
2018-11-10T16:32:49.464Z,86.30
2018-11-10T16:35:18.045Z,86.40
2018-11-10T16:37:46.598Z,86.40
2018-11-10T16:40:16.950Z,86.50
2018-11-10T16:42:47.881Z,86.60
2018-11-10T16:45:17.265Z,86.70
2018-11-10T16:47:45.804Z,86.60
2018-11-10T16:50:14.422Z,86.70
2018-11-10T16:52:43.655Z,86.70
2018-11-10T16:55:12.262Z,86.70
2018-11-10T16:57:40.844Z,86.60
2018-11-10T17:00:12.254Z,86.50
2018-11-10T17:02:40.814Z,87.30
2018-11-10T17:05:09.563Z,86.50
2018-11-10T17:07:38.356Z,86.40
2018-11-10T17:10:08.664Z,86.50
2018-11-10T17:12:37.219Z,86.60
2018-11-10T17:15:06.193Z,86.50
2018-11-10T17:17:34.756Z,86.50
2018-11-10T17:20:03.324Z,86.60
2018-11-10T17:22:31.979Z,86.90
2018-11-10T17:25:00.467Z,87.10
2018-11-10T17:27:29.016Z,87.20
2018-11-10T17:29:57.622Z,87.30
2018-11-10T17:32:26.132Z,87.50
2018-11-10T17:34:54.672Z,87.60
2018-11-10T17:37:23.215Z,87.70
2018-11-10T17:39:51.866Z,87.60
2018-11-10T17:42:20.402Z,87.70
2018-11-10T17:44:48.959Z,87.70
2018-11-10T17:47:17.501Z,88.00
2018-11-10T17:49:46.063Z,88.00
2018-11-10T17:52:14.652Z,88.00
2018-11-10T17:54:43.244Z,88.20
2018-11-10T17:57:11.733Z,88.00
2018-11-10T17:59:40.260Z,88.00
2018-11-10T18:02:08.925Z,88.00
2018-11-10T18:04:37.406Z,88.00
2018-11-10T18:07:06.584Z,88.00
2018-11-10T18:09:35.176Z,88.20
2018-11-10T18:12:03.768Z,88.40
2018-11-10T18:14:32.321Z,88.50
2018-11-10T18:17:00.880Z,88.60
2018-11-10T18:19:29.512Z,88.70
2018-11-10T18:21:58.086Z,88.50
2018-11-10T18:24:27.616Z,88.50
2018-11-10T18:26:56.196Z,88.20
2018-11-10T18:29:24.792Z,88.30
2018-11-10T18:31:53.363Z,88.50
2018-11-10T18:34:21.991Z,88.60
2018-11-10T18:36:50.573Z,88.90
2018-11-10T18:39:19.141Z,89.00
2018-11-10T18:41:47.708Z,89.20
2018-11-10T18:44:16.276Z,89.50
2018-11-10T18:46:44.840Z,89.70
2018-11-10T18:49:13.473Z,89.50
2018-11-10T18:51:42.012Z,89.20
2018-11-10T18:54:10.596Z,89.10
2018-11-10T18:56:39.164Z,88.90
2018-11-10T18:59:07.748Z,88.60
2018-11-10T19:01:36.313Z,88.50
2018-11-10T19:04:04.912Z,88.30
2018-11-10T19:06:33.550Z,88.00
2018-11-10T19:09:02.164Z,87.90
2018-11-10T19:11:30.723Z,87.80
2018-11-10T19:13:59.268Z,87.60
2018-11-10T19:16:27.828Z,87.70
2018-11-10T19:18:56.388Z,87.90
2018-11-10T19:21:24.944Z,88.10
2018-11-10T19:23:53.513Z,88.10
2018-11-10T19:26:22.057Z,88.10
2018-11-10T19:28:50.708Z,88.00
2018-11-10T19:31:19.289Z,88.00
2018-11-10T19:33:47.847Z,88.00
2018-11-10T19:36:16.421Z,88.00
2018-11-10T19:38:44.963Z,88.10
2018-11-10T19:41:13.516Z,88.00
2018-11-10T19:43:42.099Z,87.90
2018-11-10T19:46:10.652Z,87.90
2018-11-10T19:48:39.200Z,88.00
2018-11-10T19:51:12.999Z,88.00
2018-11-10T19:53:42.296Z,88.20
2018-11-10T19:56:11.263Z,88.30
2018-11-10T19:58:40.017Z,88.20
2018-11-10T20:01:09.420Z,88.10
2018-11-10T20:03:37.973Z,88.20
2018-11-10T20:06:06.275Z,88.10
2018-11-10T20:08:34.883Z,88.20
2018-11-10T20:11:03.495Z,88.10
2018-11-10T20:13:32.097Z,88.00
2018-11-10T20:16:00.680Z,88.00
2018-11-10T20:18:29.240Z,88.10
2018-11-10T20:20:57.779Z,88.10
2018-11-10T20:23:26.350Z,88.00
2018-11-10T20:25:54.912Z,88.00
2018-11-10T20:28:23.553Z,88.10
2018-11-10T20:30:52.170Z,88.10
2018-11-10T20:33:20.788Z,88.10
2018-11-10T20:35:49.351Z,88.20
2018-11-10T20:38:17.891Z,88.20
2018-11-10T20:40:46.477Z,88.30
2018-11-10T20:43:15.064Z,88.30
2018-11-10T20:45:43.674Z,88.30
2018-11-10T20:48:12.248Z,88.40
2018-11-10T20:50:40.852Z,88.40
2018-11-10T20:53:09.412Z,88.40
2018-11-10T20:55:37.963Z,88.40
2018-11-10T20:58:06.596Z,88.40
2018-11-10T21:00:35.162Z,88.50
2018-11-10T21:03:03.749Z,88.70
2018-11-10T21:05:32.349Z,89.00
2018-11-10T21:08:00.880Z,89.10
2018-11-10T21:10:29.465Z,89.10
2018-11-10T21:12:58.102Z,89.10
2018-11-10T21:15:26.577Z,89.10
2018-11-10T21:17:55.148Z,89.10
2018-11-10T21:20:23.695Z,89.10
2018-11-10T21:22:52.233Z,89.20
2018-11-10T21:25:20.812Z,89.20
2018-11-10T21:27:49.524Z,89.20
2018-11-10T21:30:19.438Z,89.20
2018-11-10T21:32:48.266Z,89.30
2018-11-10T21:35:17.062Z,89.00
2018-11-10T21:37:45.565Z,88.90
2018-11-10T21:40:16.172Z,89.10
2018-11-10T21:42:44.903Z,89.20
2018-11-10T21:45:14.199Z,89.20
2018-11-10T21:47:42.900Z,89.20
2018-11-10T21:50:13.698Z,89.20
2018-11-10T21:52:43.144Z,89.50
2018-11-10T21:55:13.416Z,89.70
2018-11-10T21:57:42.545Z,90.00
2018-11-10T22:00:13.636Z,90.00
2018-11-10T22:02:42.823Z,90.10
2018-11-10T22:05:11.467Z,90.30
2018-11-10T22:07:40.202Z,90.50
2018-11-10T22:10:10.781Z,90.60
2018-11-10T22:12:39.405Z,90.70
2018-11-10T22:15:10.283Z,90.70
2018-11-10T22:17:38.837Z,90.70
2018-11-10T22:20:08.840Z,90.80
2018-11-10T22:22:37.532Z,90.80
2018-11-10T22:25:06.920Z,90.70
2018-11-10T22:27:35.472Z,90.70
2018-11-10T22:30:04.270Z,90.70
2018-11-10T22:32:32.816Z,90.60
2018-11-10T22:35:01.368Z,90.90
2018-11-10T22:37:30.297Z,90.70
2018-11-10T22:39:58.841Z,90.90
2018-11-10T22:42:27.712Z,90.90
2018-11-10T22:44:56.405Z,91.00
2018-11-10T22:47:24.957Z,91.00
2018-11-10T22:49:53.484Z,91.00
2018-11-10T22:52:22.060Z,91.00
2018-11-10T22:54:50.618Z,91.00
2018-11-10T22:57:19.185Z,91.00
2018-11-10T22:59:48.765Z,90.90
2018-11-10T23:02:17.317Z,90.90
2018-11-10T23:04:45.892Z,90.80
2018-11-10T23:07:14.436Z,90.80
2018-11-10T23:09:42.976Z,90.80
2018-11-10T23:12:11.560Z,90.70
2018-11-10T23:14:40.105Z,90.70
2018-11-10T23:17:08.730Z,91.00
2018-11-10T23:19:37.236Z,90.60
2018-11-10T23:22:06.070Z,90.70
2018-11-10T23:24:34.641Z,90.70
2018-11-10T23:27:03.209Z,90.70
2018-11-10T23:29:31.752Z,90.80
2018-11-10T23:32:00.306Z,90.90
2018-11-10T23:34:28.863Z,90.90
2018-11-10T23:36:57.427Z,90.90
2018-11-10T23:39:26.019Z,90.80
2018-11-10T23:41:54.620Z,90.80
2018-11-10T23:44:23.176Z,90.90
2018-11-10T23:46:51.764Z,91.00
2018-11-10T23:49:20.324Z,91.00
2018-11-10T23:51:48.870Z,91.00
2018-11-10T23:54:17.449Z,90.90
2018-11-10T23:56:45.980Z,90.90
2018-11-10T23:59:14.517Z,90.90
